Main page
METAR-TAF:

METAR-TAF

Airports :

St. Louis Downtown Airport

Cahokia / St. Louis, Illinois, United States

latitude: 38-34-15N, longitude: 090-09-22W, elevation: 413 ft

Current weather observation

The report was made 35 minutes ago, at 00:53 UTC
Wind 9 mph from the South/Southeast
Temperature 91°F
Humidity 53%
Pressure 29.86 in. Hg
Visibility: 10 miles
Clear sky

METAR: KCPS 250053Z 16008KT 10SM CLR 33/22 A2986 RMK AO2 SLP106 T03280217

Time: 20:28 (01:28 UTC)

Forecast

The report was made 2 hours and 8 minutes ago, at 23:20 UTC
Forecast valid from 25 at 00 UTC to 25 at 24 UTC
Wind 8 mph from the South/Southeast
Visibility: 6 miles
Few clouds at a height of 6000 ft
From 25 at 1400 UTC
Wind 8 mph from the Southwest
Visibility: 6 miles
Few clouds at a height of 25000 ft

TAF: KCPS 242320Z 2500/2524 16007KT P6SM FEW060 FM251400 23007KT P6SM FEW250

Weather observations and forecasts of more than 4000 airports (METAR and TAF reports).

The available stations are represented by yellow and red dots on the map.

Hover mouse over dot to see the name of the station.

Then click to see weather observations and forecasts.

To change the map : click on the green buttons with a black cross to zoom in, on the green button with a dash to zoom out, or on the green arrows for adjacent maps.


METAR-TAF: